createdAt,value
2019-03-21T00:01:47.897Z,67.90
2019-03-21T00:04:17.616Z,68.10
2019-03-21T00:06:47.338Z,68.00
2019-03-21T00:09:19.602Z,68.10
2019-03-21T00:12:10.378Z,68.10
2019-03-21T00:14:47.706Z,68.00
2019-03-21T00:17:37.206Z,67.90
2019-03-21T00:20:17.129Z,67.90
2019-03-21T00:22:46.851Z,68.00
2019-03-21T00:25:21.054Z,67.80
2019-03-21T00:27:50.776Z,68.70
2019-03-21T00:30:23.683Z,67.80
2019-03-21T00:32:56.289Z,67.90
2019-03-21T00:35:26.185Z,67.80
2019-03-21T00:37:56.054Z,67.60
2019-03-21T00:40:38.783Z,67.60
2019-03-21T00:43:11.670Z,67.50
2019-03-21T00:45:41.391Z,67.60
2019-03-21T00:48:14.963Z,67.50
2019-03-21T00:50:44.693Z,67.40
2019-03-21T00:53:14.325Z,67.40
2019-03-21T00:55:48.756Z,67.50
2019-03-21T00:58:18.652Z,67.40
2019-03-21T01:00:55.413Z,67.30
2019-03-21T01:03:25.104Z,67.30
2019-03-21T01:05:54.827Z,67.20
2019-03-21T01:08:24.803Z,67.10
2019-03-21T01:10:54.634Z,67.10
2019-03-21T01:13:28.049Z,67.10
2019-03-21T01:15:57.703Z,67.00
2019-03-21T01:18:27.584Z,66.80
2019-03-21T01:20:57.192Z,66.70
2019-03-21T01:23:26.835Z,66.60
2019-03-21T01:26:06.814Z,66.60
2019-03-21T01:28:36.568Z,66.60
2019-03-21T01:31:06.294Z,66.50
2019-03-21T01:33:35.948Z,66.60
2019-03-21T01:36:07.790Z,66.80
2019-03-21T01:38:37.402Z,67.00
2019-03-21T01:41:16.233Z,67.10
2019-03-21T01:43:46.174Z,67.10
2019-03-21T01:46:22.334Z,67.20
2019-03-21T01:48:52.071Z,67.40
2019-03-21T01:51:21.813Z,67.50
2019-03-21T01:53:52.053Z,67.70
2019-03-21T01:56:21.688Z,67.80
2019-03-21T01:58:51.855Z,67.90
2019-03-21T02:01:21.534Z,67.80
2019-03-21T02:03:51.211Z,67.80
2019-03-21T02:06:20.846Z,67.80
2019-03-21T02:08:50.583Z,67.90
2019-03-21T02:11:20.318Z,67.90
2019-03-21T02:13:50.200Z,67.80
2019-03-21T02:16:19.938Z,67.90
2019-03-21T02:18:49.909Z,68.10
2019-03-21T02:21:19.794Z,68.10
2019-03-21T02:23:49.518Z,68.30
2019-03-21T02:26:19.263Z,68.30
2019-03-21T02:28:48.940Z,68.40
2019-03-21T02:31:18.675Z,68.40
2019-03-21T02:33:48.327Z,68.50
2019-03-21T02:36:50.572Z,68.40
2019-03-21T02:42:09.547Z,68.50
2019-03-21T02:44:39.206Z,68.50
2019-03-21T02:47:08.819Z,68.50
2019-03-21T02:49:38.737Z,68.70
2019-03-21T02:52:08.368Z,68.70
2019-03-21T02:54:37.986Z,68.70
2019-03-21T02:57:07.721Z,68.90
2019-03-21T02:59:37.446Z,68.90
2019-03-21T03:02:07.074Z,69.00
2019-03-21T03:04:36.976Z,69.00
2019-03-21T03:07:06.611Z,69.10
2019-03-21T03:09:36.845Z,69.10
2019-03-21T03:12:06.547Z,69.20
2019-03-21T03:14:36.303Z,69.20
2019-03-21T03:17:06.074Z,69.30
2019-03-21T03:19:35.961Z,69.30
2019-03-21T03:22:05.804Z,69.40
2019-03-21T03:24:35.631Z,69.40
2019-03-21T03:27:05.263Z,69.60
2019-03-21T03:29:35.009Z,69.40
2019-03-21T03:32:04.657Z,69.40
2019-03-21T03:34:34.302Z,69.50
2019-03-21T03:37:04.033Z,70.40
2019-03-21T03:39:36.837Z,69.60
2019-03-21T03:42:05.535Z,69.70
2019-03-21T03:44:35.183Z,69.80
2019-03-21T03:47:04.820Z,69.90
2019-03-21T03:49:34.496Z,70.00
2019-03-21T03:52:04.238Z,70.10
2019-03-21T03:54:33.826Z,70.10
2019-03-21T03:57:03.486Z,70.10
2019-03-21T03:59:33.207Z,70.10
2019-03-21T04:02:02.907Z,70.30
2019-03-21T04:04:32.832Z,70.20
2019-03-21T04:07:02.575Z,70.30
2019-03-21T04:09:32.502Z,70.30
2019-03-21T04:12:02.334Z,71.10
2019-03-21T04:14:32.016Z,70.30
2019-03-21T04:17:01.677Z,70.40
2019-03-21T04:19:31.294Z,70.40
2019-03-21T04:22:00.939Z,70.30
2019-03-21T04:24:30.707Z,70.40
2019-03-21T04:27:00.436Z,70.30
2019-03-21T04:29:30.318Z,70.30
2019-03-21T04:31:59.954Z,70.30
2019-03-21T04:34:29.633Z,70.40
2019-03-21T04:36:59.371Z,70.40
2019-03-21T04:39:29.062Z,70.50
2019-03-21T04:41:58.794Z,70.60
2019-03-21T04:44:28.491Z,70.60
2019-03-21T04:46:58.482Z,70.50
2019-03-21T04:49:28.138Z,70.50
2019-03-21T04:51:58.125Z,70.60
2019-03-21T04:54:27.797Z,70.70
2019-03-21T04:56:57.527Z,70.80
2019-03-21T04:59:27.547Z,70.60
2019-03-21T05:01:57.151Z,70.70
2019-03-21T05:04:26.775Z,70.70
2019-03-21T05:06:56.475Z,70.90
2019-03-21T05:09:26.112Z,71.00
2019-03-21T05:11:55.824Z,71.10
2019-03-21T05:14:25.486Z,71.00
2019-03-21T05:16:55.157Z,71.00
2019-03-21T05:19:24.766Z,71.00
2019-03-21T05:21:54.635Z,71.00
2019-03-21T05:24:24.291Z,71.00
2019-03-21T05:26:54.021Z,71.00
2019-03-21T05:29:23.670Z,70.90
2019-03-21T05:31:53.328Z,71.10
2019-03-21T05:34:23.209Z,71.30
2019-03-21T05:36:52.858Z,71.40
2019-03-21T05:39:22.832Z,71.70
2019-03-21T05:41:52.511Z,71.90
2019-03-21T05:44:35.745Z,72.10
2019-03-21T05:47:04.663Z,72.10
2019-03-21T05:49:34.552Z,71.90
2019-03-21T05:52:05.088Z,71.70
2019-03-21T05:54:34.833Z,71.90
2019-03-21T05:57:04.470Z,72.90
2019-03-21T05:59:34.119Z,72.00
2019-03-21T06:02:03.846Z,72.00
2019-03-21T06:04:33.493Z,72.00
2019-03-21T06:07:13.408Z,72.00
2019-03-21T06:09:43.080Z,71.90
2019-03-21T06:12:12.706Z,71.90
2019-03-21T06:14:49.722Z,71.80
2019-03-21T06:17:19.335Z,71.90
2019-03-21T06:20:27.002Z,71.70
2019-03-21T06:23:03.856Z,71.70
2019-03-21T06:25:53.116Z,71.40
2019-03-21T06:28:22.734Z,71.40
2019-03-21T06:30:52.447Z,71.30
2019-03-21T06:33:22.127Z,71.30
2019-03-21T06:35:51.775Z,71.50
2019-03-21T06:38:21.386Z,71.30
2019-03-21T06:40:51.070Z,71.40
2019-03-21T06:43:20.815Z,71.30
2019-03-21T06:45:51.102Z,71.20
2019-03-21T06:48:20.923Z,71.20
2019-03-21T06:50:50.959Z,71.10
2019-03-21T06:53:21.361Z,71.00
2019-03-21T06:55:51.442Z,70.90
2019-03-21T06:58:21.363Z,70.80
2019-03-21T07:00:51.329Z,70.60
2019-03-21T07:03:21.403Z,70.60
2019-03-21T07:05:51.357Z,70.40
2019-03-21T07:08:21.960Z,70.30
2019-03-21T07:10:51.960Z,70.10
2019-03-21T07:13:22.316Z,70.00
2019-03-21T07:15:52.608Z,70.00
2019-03-21T07:18:22.784Z,69.80
2019-03-21T07:20:52.780Z,70.10
2019-03-21T07:23:22.919Z,69.60
2019-03-21T07:25:54.817Z,69.40
2019-03-21T07:28:24.892Z,69.30
2019-03-21T07:30:56.016Z,69.10
2019-03-21T07:33:26.110Z,69.10
2019-03-21T07:35:57.555Z,69.10
2019-03-21T07:38:27.441Z,69.00
2019-03-21T07:40:57.633Z,69.10
2019-03-21T07:43:28.195Z,68.80
2019-03-21T07:45:59.726Z,68.80
2019-03-21T07:48:29.819Z,68.70
2019-03-21T07:50:59.672Z,68.70
2019-03-21T07:53:29.620Z,68.60
2019-03-21T07:55:59.597Z,68.50
2019-03-21T07:58:29.217Z,68.50
2019-03-21T08:00:59.185Z,68.50
2019-03-21T08:03:28.844Z,68.30
2019-03-21T08:05:58.599Z,68.10
2019-03-21T08:08:28.569Z,68.10
2019-03-21T08:10:58.199Z,68.00
2019-03-21T08:13:27.871Z,67.90
2019-03-21T08:15:57.484Z,67.70
2019-03-21T08:18:28.153Z,67.70
2019-03-21T08:21:00.021Z,67.70
2019-03-21T08:23:29.346Z,67.60
2019-03-21T08:25:58.939Z,67.50
2019-03-21T08:28:28.600Z,67.50
2019-03-21T08:31:08.306Z,67.40
2019-03-21T08:33:37.929Z,67.50
2019-03-21T08:36:07.837Z,67.60
2019-03-21T08:38:37.454Z,67.60
2019-03-21T08:41:07.292Z,67.70
2019-03-21T08:43:37.304Z,67.70
2019-03-21T08:46:06.916Z,67.60
2019-03-21T08:48:36.529Z,67.70
2019-03-21T08:51:08.698Z,67.60
2019-03-21T08:53:37.497Z,67.70
2019-03-21T08:56:07.435Z,67.70
2019-03-21T08:58:37.046Z,67.70
2019-03-21T09:01:06.794Z,67.70
2019-03-21T09:03:37.374Z,67.60
2019-03-21T09:06:07.130Z,67.70
2019-03-21T09:08:37.102Z,67.50
2019-03-21T09:11:06.702Z,67.60
2019-03-21T09:13:36.317Z,67.80
2019-03-21T09:16:05.932Z,67.70
2019-03-21T09:18:35.805Z,67.70
2019-03-21T09:21:05.482Z,67.50
2019-03-21T09:23:35.121Z,67.50
2019-03-21T09:26:04.804Z,67.40
2019-03-21T09:28:34.408Z,67.40
2019-03-21T09:31:04.063Z,67.40
2019-03-21T09:33:33.646Z,68.20
2019-03-21T09:36:03.539Z,67.40
2019-03-21T09:38:33.166Z,67.60
2019-03-21T09:41:02.894Z,67.70
2019-03-21T09:43:33.439Z,67.70
2019-03-21T09:46:03.040Z,67.70
2019-03-21T09:48:32.896Z,67.70
2019-03-21T09:51:07.558Z,67.80
2019-03-21T09:53:41.350Z,67.80
2019-03-21T09:56:16.456Z,67.80
2019-03-21T09:58:49.890Z,67.70
2019-03-21T10:01:22.804Z,67.70
2019-03-21T10:03:55.948Z,67.70
2019-03-21T10:06:30.800Z,67.70
2019-03-21T10:09:05.960Z,67.30
2019-03-21T10:11:40.225Z,67.30
2019-03-21T10:14:13.876Z,67.10
2019-03-21T10:16:47.904Z,67.30
2019-03-21T10:19:22.076Z,67.30
2019-03-21T10:21:58.923Z,67.30
2019-03-21T10:24:32.249Z,67.30
2019-03-21T10:27:05.475Z,67.30
2019-03-21T10:29:40.562Z,67.30
2019-03-21T10:32:14.679Z,67.30
2019-03-21T10:34:48.433Z,67.30
2019-03-21T10:37:18.183Z,67.30
2019-03-21T10:39:48.053Z,67.40
2019-03-21T10:42:17.937Z,67.50
2019-03-21T10:44:47.614Z,67.50
2019-03-21T10:47:17.552Z,67.70
2019-03-21T10:49:47.165Z,67.60
2019-03-21T10:52:17.156Z,67.40
2019-03-21T10:54:47.103Z,67.70
2019-03-21T10:57:17.028Z,66.80
2019-03-21T10:59:47.873Z,66.70
2019-03-21T11:02:20.146Z,66.60
2019-03-21T11:04:49.996Z,66.60
2019-03-21T11:07:18.101Z,66.50
2019-03-21T11:09:48.556Z,66.40
2019-03-21T11:12:18.265Z,66.40
2019-03-21T11:14:47.870Z,66.40
2019-03-21T11:17:17.476Z,66.50
2019-03-21T11:19:47.121Z,66.30
2019-03-21T11:22:16.718Z,66.30
2019-03-21T11:24:46.334Z,66.20
2019-03-21T11:27:16.218Z,66.10
2019-03-21T11:29:46.202Z,66.10
2019-03-21T11:32:15.900Z,65.90
2019-03-21T11:34:45.608Z,65.80
2019-03-21T11:37:15.210Z,65.70
2019-03-21T11:39:44.831Z,65.60
2019-03-21T11:42:14.706Z,65.50
2019-03-21T11:44:44.295Z,65.40
2019-03-21T11:47:13.998Z,65.30
2019-03-21T11:49:43.616Z,65.10
2019-03-21T11:52:18.140Z,65.00
2019-03-21T11:54:44.850Z,65.10
2019-03-21T11:57:14.736Z,64.90
2019-03-21T11:59:51.565Z,64.90
2019-03-21T12:02:26.782Z,64.80
2019-03-21T12:04:49.403Z,64.60
2019-03-21T12:07:19.274Z,64.50
2019-03-21T12:09:48.899Z,64.40
2019-03-21T12:12:18.521Z,64.40
2019-03-21T12:14:48.135Z,64.40
2019-03-21T12:17:18.065Z,64.20
2019-03-21T12:19:47.746Z,64.20
2019-03-21T12:22:29.194Z,64.20
2019-03-21T12:24:48.832Z,64.00
2019-03-21T12:27:18.458Z,63.90
2019-03-21T12:29:48.079Z,63.90
2019-03-21T12:32:18.416Z,63.90
2019-03-21T12:34:48.123Z,63.70
2019-03-21T12:37:17.743Z,63.50
2019-03-21T12:39:47.446Z,63.40
2019-03-21T12:42:17.130Z,63.30
2019-03-21T12:44:49.398Z,63.10
2019-03-21T12:47:18.191Z,63.10
2019-03-21T12:49:47.821Z,63.10
2019-03-21T12:52:17.542Z,63.10
2019-03-21T12:54:47.270Z,63.10
2019-03-21T12:57:16.894Z,63.00
2019-03-21T12:59:46.518Z,62.90
2019-03-21T13:02:16.171Z,62.90
2019-03-21T13:04:45.801Z,63.00
2019-03-21T13:07:16.187Z,62.90
2019-03-21T13:09:46.190Z,62.80
2019-03-21T13:12:15.821Z,62.80
2019-03-21T13:14:45.509Z,62.80
2019-03-21T13:17:15.617Z,62.70
2019-03-21T13:19:45.336Z,62.80
2019-03-21T13:22:15.031Z,62.70
2019-03-21T13:24:44.641Z,62.70
2019-03-21T13:27:14.274Z,62.80
2019-03-21T13:29:43.976Z,62.90
2019-03-21T13:32:13.610Z,62.80
2019-03-21T13:34:43.305Z,62.90
2019-03-21T13:37:12.927Z,62.80
2019-03-21T13:39:42.537Z,62.80
2019-03-21T13:42:12.166Z,62.90
2019-03-21T13:44:41.794Z,62.80
2019-03-21T13:47:11.417Z,62.70
2019-03-21T13:49:41.085Z,62.70
2019-03-21T13:52:10.719Z,63.60
2019-03-21T13:54:40.346Z,62.60
2019-03-21T13:57:09.949Z,62.70
2019-03-21T13:59:39.915Z,62.80
2019-03-21T14:02:09.906Z,62.60
2019-03-21T14:04:39.505Z,62.70
2019-03-21T14:07:09.113Z,62.70
2019-03-21T14:09:38.739Z,62.60
2019-03-21T14:12:08.367Z,62.60
2019-03-21T14:14:37.972Z,62.60
2019-03-21T14:17:21.326Z,62.70
2019-03-21T14:19:41.447Z,62.70
2019-03-21T14:22:11.057Z,62.70
2019-03-21T14:24:40.686Z,62.70
2019-03-21T14:27:10.288Z,62.80
2019-03-21T14:29:40.148Z,62.70
2019-03-21T14:32:09.783Z,62.70
2019-03-21T14:34:39.492Z,62.70
2019-03-21T14:37:10.125Z,62.70
2019-03-21T14:39:39.800Z,62.80
2019-03-21T14:42:09.481Z,62.90
2019-03-21T14:44:39.112Z,62.80
2019-03-21T14:47:08.725Z,62.80
2019-03-21T14:49:38.428Z,62.70
2019-03-21T14:52:08.021Z,62.70
2019-03-21T14:54:37.666Z,62.50
2019-03-21T14:57:07.277Z,62.40
2019-03-21T14:59:37.214Z,62.40
2019-03-21T15:02:06.836Z,63.00
2019-03-21T15:04:36.463Z,63.00
2019-03-21T15:07:06.059Z,62.10
2019-03-21T15:09:35.713Z,62.10
2019-03-21T15:12:05.506Z,62.10
2019-03-21T15:14:35.112Z,62.20
2019-03-21T15:17:04.809Z,62.20
2019-03-21T15:19:35.362Z,62.30
2019-03-21T15:22:05.132Z,62.30
2019-03-21T15:24:34.821Z,62.30
2019-03-21T15:27:04.488Z,62.30
2019-03-21T15:29:35.478Z,62.40
2019-03-21T15:32:05.780Z,62.40
2019-03-21T15:34:35.652Z,62.60
2019-03-21T15:37:05.432Z,62.70
2019-03-21T15:39:35.138Z,62.80
2019-03-21T15:42:04.873Z,62.90
2019-03-21T15:44:34.574Z,63.00
2019-03-21T15:47:04.202Z,62.90
2019-03-21T15:49:33.831Z,62.90
2019-03-21T15:52:03.450Z,62.90
2019-03-21T15:54:33.082Z,62.90
2019-03-21T15:57:02.689Z,62.80
2019-03-21T15:59:32.329Z,62.70
2019-03-21T16:02:01.957Z,62.70
2019-03-21T16:04:31.598Z,62.60
2019-03-21T16:07:01.241Z,62.50
2019-03-21T16:09:35.314Z,62.60
2019-03-21T16:12:09.755Z,62.50
2019-03-21T16:14:42.251Z,62.50
2019-03-21T16:17:16.444Z,62.50
2019-03-21T16:19:49.711Z,62.50
2019-03-21T16:22:23.035Z,62.50
2019-03-21T16:24:52.791Z,62.60
2019-03-21T16:27:23.021Z,62.50
2019-03-21T16:29:58.626Z,62.50
2019-03-21T16:32:33.406Z,62.60
2019-03-21T16:35:07.413Z,62.60
2019-03-21T16:37:40.618Z,62.60
2019-03-21T16:40:19.552Z,62.50
2019-03-21T16:42:49.323Z,62.60
2019-03-21T16:45:21.273Z,62.70
2019-03-21T16:47:51.061Z,62.80
2019-03-21T16:50:20.976Z,62.80
2019-03-21T16:52:50.607Z,62.90
2019-03-21T16:55:20.207Z,62.90
2019-03-21T16:57:49.857Z,63.00
2019-03-21T17:00:22.469Z,63.00
2019-03-21T17:02:52.092Z,63.10
2019-03-21T17:05:22.547Z,63.20
2019-03-21T17:07:52.687Z,63.30
2019-03-21T17:10:22.305Z,63.40
2019-03-21T17:12:52.255Z,63.50
2019-03-21T17:15:21.896Z,63.50
2019-03-21T17:17:51.496Z,63.50
2019-03-21T17:20:21.124Z,63.60
2019-03-21T17:22:50.736Z,63.60
2019-03-21T17:25:20.347Z,63.50
2019-03-21T17:27:49.962Z,63.50
2019-03-21T17:30:21.034Z,63.50
2019-03-21T17:32:50.725Z,63.50
2019-03-21T17:35:20.350Z,63.50
2019-03-21T17:37:49.988Z,63.50
2019-03-21T17:40:20.021Z,63.40
2019-03-21T17:42:49.669Z,63.40
2019-03-21T17:45:19.771Z,63.40
2019-03-21T17:47:49.429Z,63.50
2019-03-21T17:50:20.119Z,63.30
2019-03-21T17:52:49.818Z,63.40
2019-03-21T17:55:19.797Z,63.20
2019-03-21T17:57:49.492Z,63.20
2019-03-21T18:00:28.263Z,63.20
2019-03-21T18:02:58.077Z,63.20
2019-03-21T18:05:27.962Z,63.10
2019-03-21T18:07:57.617Z,63.10
2019-03-21T18:10:32.764Z,63.10
2019-03-21T18:13:03.366Z,63.00
2019-03-21T18:15:35.172Z,63.10
2019-03-21T18:18:05.316Z,63.10
2019-03-21T18:20:35.226Z,63.20
2019-03-21T18:23:04.914Z,63.10
2019-03-21T18:25:34.537Z,63.10
2019-03-21T18:28:04.321Z,63.10
2019-03-21T18:30:33.972Z,63.00
2019-03-21T18:33:03.742Z,63.10
2019-03-21T18:35:33.417Z,63.10
2019-03-21T18:38:03.128Z,63.20
2019-03-21T18:40:32.753Z,63.20
2019-03-21T18:43:02.400Z,63.20
2019-03-21T18:45:31.999Z,63.30
2019-03-21T18:48:01.927Z,63.30
2019-03-21T18:50:31.530Z,63.30
2019-03-21T18:53:01.403Z,63.40
2019-03-21T18:55:31.008Z,63.50
2019-03-21T18:58:00.905Z,63.50
2019-03-21T19:00:31.120Z,63.50
2019-03-21T19:03:00.919Z,63.60
2019-03-21T19:05:30.549Z,63.50
2019-03-21T19:08:00.440Z,63.50
2019-03-21T19:10:30.085Z,63.40
2019-03-21T19:12:59.817Z,63.40
2019-03-21T19:15:29.522Z,63.40
2019-03-21T19:17:59.124Z,63.40
2019-03-21T19:20:29.023Z,63.40
2019-03-21T19:22:58.625Z,63.40
2019-03-21T19:25:28.336Z,63.50
2019-03-21T19:28:01.523Z,63.50
2019-03-21T19:30:35.306Z,63.50
2019-03-21T19:33:08.673Z,63.60
2019-03-21T19:35:38.508Z,63.50
2019-03-21T19:38:08.108Z,63.60
2019-03-21T19:40:37.814Z,63.70
2019-03-21T19:43:07.823Z,63.60
2019-03-21T19:45:37.464Z,63.60
2019-03-21T19:48:07.067Z,63.50
2019-03-21T19:50:36.690Z,63.40
2019-03-21T19:53:06.569Z,63.40
2019-03-21T19:55:36.484Z,63.40
2019-03-21T19:58:06.110Z,63.60
2019-03-21T20:00:35.739Z,63.60
2019-03-21T20:03:06.262Z,63.50
2019-03-21T20:05:36.120Z,63.50
2019-03-21T20:08:05.798Z,63.40
2019-03-21T20:10:35.434Z,63.40
2019-03-21T20:13:05.475Z,63.40
2019-03-21T20:15:35.485Z,63.40
2019-03-21T20:18:05.262Z,63.50
2019-03-21T20:20:34.921Z,63.50
2019-03-21T20:23:04.539Z,63.50
2019-03-21T20:25:42.705Z,63.70
2019-03-21T20:28:05.566Z,63.70
2019-03-21T20:30:35.194Z,63.80
2019-03-21T20:33:04.901Z,63.80
2019-03-21T20:35:34.522Z,64.00
2019-03-21T20:38:04.217Z,64.00
2019-03-21T20:40:33.839Z,64.10
2019-03-21T20:43:03.481Z,64.00
2019-03-21T20:45:33.084Z,64.00
2019-03-21T20:48:02.712Z,64.00
2019-03-21T20:50:32.354Z,63.90
2019-03-21T20:53:02.004Z,64.00
2019-03-21T20:55:31.619Z,64.10
2019-03-21T20:58:01.549Z,64.00
2019-03-21T21:00:31.227Z,64.00
2019-03-21T21:03:00.906Z,64.00
2019-03-21T21:05:31.517Z,64.00
2019-03-21T21:08:01.201Z,64.00
2019-03-21T21:10:31.226Z,64.70
2019-03-21T21:13:00.883Z,63.90
2019-03-21T21:15:30.647Z,63.90
2019-03-21T21:18:00.609Z,63.90
2019-03-21T21:20:30.646Z,63.90
2019-03-21T21:23:02.418Z,63.90
2019-03-21T21:25:32.080Z,64.60
2019-03-21T21:28:02.005Z,63.90
2019-03-21T21:30:31.741Z,63.80
2019-03-21T21:33:01.401Z,63.90
2019-03-21T21:35:31.051Z,63.90
2019-03-21T21:38:02.113Z,63.90
2019-03-21T21:40:33.513Z,63.90
2019-03-21T21:43:03.672Z,63.90
2019-03-21T21:45:33.361Z,64.70
2019-03-21T21:48:02.933Z,63.90
2019-03-21T21:50:32.836Z,63.90
2019-03-21T21:53:02.734Z,63.90
2019-03-21T21:55:32.384Z,63.90
2019-03-21T21:58:02.026Z,63.90
2019-03-21T22:00:31.684Z,64.00
2019-03-21T22:03:01.322Z,64.00
2019-03-21T22:05:31.048Z,63.90
2019-03-21T22:08:00.762Z,64.00
2019-03-21T22:10:30.391Z,63.90
2019-03-21T22:13:00.014Z,63.90
2019-03-21T22:15:29.612Z,63.90
2019-03-21T22:17:59.220Z,63.80
2019-03-21T22:20:29.123Z,63.80
2019-03-21T22:22:58.833Z,63.90
2019-03-21T22:25:28.442Z,63.90
2019-03-21T22:27:58.086Z,63.90
2019-03-21T22:30:27.714Z,63.90
2019-03-21T22:32:57.616Z,63.90
2019-03-21T22:35:27.340Z,63.90
2019-03-21T22:37:56.954Z,63.80
2019-03-21T22:40:26.711Z,63.90
2019-03-21T22:42:56.581Z,63.90
2019-03-21T22:45:26.459Z,64.00
2019-03-21T22:47:56.120Z,64.00
2019-03-21T22:50:25.921Z,64.10
2019-03-21T22:52:55.530Z,64.10
2019-03-21T22:55:25.422Z,64.20
2019-03-21T22:57:55.325Z,64.20
2019-03-21T23:00:29.882Z,64.10
2019-03-21T23:02:59.523Z,64.30
2019-03-21T23:05:29.127Z,64.30
2019-03-21T23:07:58.734Z,64.30
2019-03-21T23:10:28.420Z,64.40
2019-03-21T23:12:58.027Z,64.40
2019-03-21T23:15:27.638Z,64.40
2019-03-21T23:17:57.257Z,64.40
2019-03-21T23:20:27.039Z,64.40
2019-03-21T23:22:56.666Z,64.30
2019-03-21T23:25:26.292Z,64.30
2019-03-21T23:27:55.994Z,64.30
2019-03-21T23:30:25.617Z,64.30
2019-03-21T23:32:55.225Z,64.30
2019-03-21T23:35:25.205Z,64.30
2019-03-21T23:37:54.812Z,64.30
2019-03-21T23:40:24.514Z,64.40
2019-03-21T23:42:54.163Z,64.20
2019-03-21T23:45:23.861Z,64.30
2019-03-21T23:47:53.468Z,64.20
2019-03-21T23:50:23.112Z,64.30
2019-03-21T23:52:52.982Z,64.30
2019-03-21T23:55:22.886Z,64.30
2019-03-21T23:57:52.508Z,64.30
